Time;durP1;ratioP1;P1;durP2;ratioP2;P2;SDS_P1;SDS_P2;PMS_P1;PMS_P2;Temp;Humidity;BMP_temperature;BMP_pressure;BME280_temperature;BME280_humidity;BME280_pressure;Samples;Min_cycle;Max_cycle;Signal;HPM_P1;HPM_P2
2023/04/03 00:00:42;;;;;;;17.77;8.18;;;;;;;;;;5090020;28;20038;-73
2023/04/03 00:03:08;;;;;;;18.88;9.50;;;;;;;;;;5071576;28;20016;-73
2023/04/03 00:05:34;;;;;;;14.23;7.72;;;;;;;;;;5090119;28;20374;-74
2023/04/03 00:08:01;;;;;;;17.08;8.75;;;;;;;;;;5071558;28;20070;-74
2023/04/03 00:10:28;;;;;;;12.95;7.97;;;;;;;;;;5089937;28;20043;-74
2023/04/03 00:12:54;;;;;;;18.60;8.90;;;;;;;;;;5089861;28;20028;-74
2023/04/03 00:15:20;;;;;;;17.33;9.05;;;;;;;;;;5071045;28;20032;-74
2023/04/03 00:17:46;;;;;;;14.65;8.27;;;;;;;;;;5089492;28;20403;-73
2023/04/03 00:20:12;;;;;;;14.98;7.70;;;;;;;;;;5071840;28;20490;-74
2023/04/03 00:22:38;;;;;;;16.23;8.23;;;;;;;;;;5090059;28;20101;-74
2023/04/03 00:25:04;;;;;;;12.57;7.32;;;;;;;;;;5089716;28;20165;-74
2023/04/03 00:27:30;;;;;;;15.30;7.93;;;;;;;;;;5072523;28;20032;-73
2023/04/03 00:29:56;;;;;;;13.18;7.00;;;;;;;;;;5107691;28;20075;-74
2023/04/03 00:32:22;;;;;;;12.00;6.72;;;;;;;;;;5110577;28;20020;-73
2023/04/03 00:34:48;;;;;;;14.55;6.85;;;;;;;;;;5109621;28;20391;-74
2023/04/03 00:37:14;;;;;;;14.75;6.82;;;;;;;;;;5109602;28;20270;-74
2023/04/03 00:39:40;;;;;;;10.68;6.50;;;;;;;;;;5110362;28;20031;-73
2023/04/03 00:42:07;;;;;;;11.27;6.35;;;;;;;;;;5110390;28;20019;-74
2023/04/03 00:44:35;;;;;;;8.48;5.32;;;;;;;;;;5109796;28;20035;-74
2023/04/03 00:47:04;;;;;;;12.00;6.22;;;;;;;;;;5110772;28;20384;-73
2023/04/03 00:49:30;;;;;;;12.07;6.63;;;;;;;;;;5113581;28;20027;-73
2023/04/03 00:51:57;;;;;;;13.20;6.00;;;;;;;;;;5110358;28;20023;-74
2023/04/03 00:54:23;;;;;;;7.57;5.75;;;;;;;;;;5092243;28;20152;-73
2023/04/03 00:56:51;;;;;;;11.43;6.00;;;;;;;;;;5110041;28;20106;-74
2023/04/03 00:59:21;;;;;;;8.75;5.35;;;;;;;;;;5108934;28;20262;-74
2023/04/03 01:01:48;;;;;;;6.35;5.05;;;;;;;;;;5091883;28;20298;-74
2023/04/03 01:04:35;;;;;;;9.20;5.57;;;;;;;;;;5091055;28;20035;-74
2023/04/03 01:07:03;;;;;;;8.13;5.28;;;;;;;;;;5089390;28;20130;-73
2023/04/03 01:09:29;;;;;;;4.20;2.88;;;;;;;;;;5108924;28;20036;-74
2023/04/03 01:12:12;;;;;;;7.45;5.05;;;;;;;;;;5090590;28;20470;-74
2023/04/03 01:14:38;;;;;;;6.72;4.80;;;;;;;;;;5108508;28;20192;-74
2023/04/03 01:17:05;;;;;;;5.68;4.45;;;;;;;;;;5108350;28;20130;-74
2023/04/03 01:19:31;;;;;;;5.63;4.32;;;;;;;;;;5088895;28;20023;-74
2023/04/03 01:22:20;;;;;;;5.05;3.50;;;;;;;;;;5089345;28;20031;-74
2023/04/03 01:24:47;;;;;;;5.47;3.95;;;;;;;;;;5108157;28;20054;-73
2023/04/03 01:27:13;;;;;;;6.32;4.95;;;;;;;;;;5106685;28;20088;-73
2023/04/03 01:29:40;;;;;;;3.75;3.42;;;;;;;;;;5091859;28;20555;-74
2023/04/03 01:32:06;;;;;;;6.07;4.13;;;;;;;;;;5067947;28;20028;-73
2023/04/03 01:34:32;;;;;;;5.25;4.10;;;;;;;;;;5086595;28;20059;-74
2023/04/03 01:36:58;;;;;;;6.95;3.50;;;;;;;;;;5086519;28;20063;-74
2023/04/03 01:39:24;;;;;;;6.28;4.03;;;;;;;;;;5086560;28;20436;-74
2023/04/03 01:41:50;;;;;;;7.95;4.07;;;;;;;;;;5067953;28;20063;-73
2023/04/03 01:44:16;;;;;;;10.68;4.72;;;;;;;;;;5067834;28;20079;-73
2023/04/03 01:46:42;;;;;;;9.13;4.60;;;;;;;;;;5086816;28;20027;-73
2023/04/03 01:49:08;;;;;;;5.85;4.47;;;;;;;;;;5087856;28;20488;-73
2023/04/03 01:51:34;;;;;;;7.78;4.22;;;;;;;;;;5087644;28;20032;-73
2023/04/03 01:54:00;;;;;;;6.75;4.22;;;;;;;;;;5087666;28;20237;-73
2023/04/03 01:56:26;;;;;;;6.82;4.43;;;;;;;;;;5069648;28;20028;-73
2023/04/03 01:58:52;;;;;;;5.82;4.95;;;;;;;;;;5087763;28;20028;-73
2023/04/03 02:01:18;;;;;;;4.95;3.88;;;;;;;;;;5088171;28;20035;-73
2023/04/03 02:03:44;;;;;;;6.13;3.88;;;;;;;;;;5087859;28;20028;-74
2023/04/03 02:06:11;;;;;;;5.82;4.68;;;;;;;;;;5070868;28;20073;-74
2023/04/03 02:08:37;;;;;;;5.28;3.83;;;;;;;;;;5088202;28;20047;-74
2023/04/03 02:11:03;;;;;;;6.93;4.70;;;;;;;;;;5088778;28;20083;-73
2023/04/03 02:13:29;;;;;;;9.15;4.00;;;;;;;;;;5087792;28;20024;-73
2023/04/03 02:15:55;;;;;;;4.82;3.65;;;;;;;;;;5069713;28;20135;-74
2023/04/03 02:18:21;;;;;;;4.72;3.58;;;;;;;;;;5087498;28;20138;-73
2023/04/03 02:20:47;;;;;;;6.65;3.90;;;;;;;;;;5069836;28;20024;-74
2023/04/03 02:23:13;;;;;;;5.55;3.92;;;;;;;;;;5071095;28;20085;-73
2023/04/03 02:25:39;;;;;;;5.65;3.95;;;;;;;;;;5087280;28;20122;-74
2023/04/03 02:28:06;;;;;;;6.78;3.78;;;;;;;;;;5070522;28;20016;-74
2023/04/03 02:30:32;;;;;;;7.22;3.20;;;;;;;;;;5108738;28;20035;-74
2023/04/03 02:32:58;;;;;;;5.03;3.97;;;;;;;;;;5107532;28;20039;-74
2023/04/03 02:35:24;;;;;;;3.35;2.97;;;;;;;;;;5107502;28;20028;-73
2023/04/03 02:37:50;;;;;;;6.78;3.67;;;;;;;;;;5107868;28;20100;-73
2023/04/03 02:40:16;;;;;;;6.28;3.97;;;;;;;;;;5088555;28;20023;-73
2023/04/03 02:42:42;;;;;;;4.45;3.70;;;;;;;;;;5089271;28;20544;-73
2023/04/03 02:45:09;;;;;;;4.38;3.72;;;;;;;;;;5107078;28;20108;-74
2023/04/03 02:47:35;;;;;;;4.43;3.30;;;;;;;;;;5107196;28;20016;-73
2023/04/03 02:50:01;;;;;;;4.97;3.40;;;;;;;;;;5107051;28;21074;-73
2023/04/03 02:52:27;;;;;;;11.88;3.65;;;;;;;;;;5088460;28;20034;-73
2023/04/03 02:54:53;;;;;;;5.00;3.38;;;;;;;;;;5088635;28;20538;-74
2023/04/03 02:57:19;;;;;;;5.82;3.40;;;;;;;;;;5107177;28;20045;-73
2023/04/03 02:59:45;;;;;;;4.93;3.70;;;;;;;;;;5088693;28;20114;-73
2023/04/03 03:02:11;;;;;;;3.85;3.20;;;;;;;;;;5107721;28;20039;-73
2023/04/03 03:04:38;;;;;;;5.00;3.70;;;;;;;;;;5107724;28;20032;-74
2023/04/03 03:07:04;;;;;;;5.78;3.78;;;;;;;;;;5107040;28;20041;-73
2023/04/03 03:09:30;;;;;;;6.50;3.28;;;;;;;;;;5106561;28;20031;-74
2023/04/03 03:11:56;;;;;;;5.50;3.65;;;;;;;;;;5107116;28;20023;-74
2023/04/03 03:14:23;;;;;;;7.00;3.35;;;;;;;;;;5087794;28;20019;-73
2023/04/03 03:16:49;;;;;;;6.53;3.47;;;;;;;;;;5107106;28;20050;-74
2023/04/03 03:19:15;;;;;;;7.38;3.70;;;;;;;;;;5089117;28;20019;-74
2023/04/03 03:21:41;;;;;;;3.97;3.30;;;;;;;;;;5107759;28;20447;-74
2023/04/03 03:24:07;;;;;;;7.22;4.35;;;;;;;;;;5108083;28;20031;-74
2023/04/03 03:26:34;;;;;;;4.72;3.47;;;;;;;;;;5107305;28;20027;-72
2023/04/03 03:29:00;;;;;;;5.05;3.40;;;;;;;;;;5079349;28;20020;-73
2023/04/03 03:31:26;;;;;;;6.93;3.78;;;;;;;;;;5086817;28;20028;-73
2023/04/03 03:33:52;;;;;;;5.30;3.92;;;;;;;;;;5086370;28;20527;-73
2023/04/03 03:36:18;;;;;;;6.28;4.15;;;;;;;;;;5084695;28;20024;-74
2023/04/03 03:38:44;;;;;;;7.65;3.58;;;;;;;;;;5084871;28;20126;-74
2023/04/03 03:41:10;;;;;;;6.00;4.72;;;;;;;;;;5085076;28;20040;-74
2023/04/03 03:43:36;;;;;;;5.22;3.25;;;;;;;;;;5084930;28;20020;-74
2023/04/03 03:46:02;;;;;;;4.50;3.17;;;;;;;;;;5084175;28;20093;-74
2023/04/03 03:48:28;;;;;;;5.18;3.85;;;;;;;;;;5084776;28;20044;-73
2023/04/03 03:50:54;;;;;;;7.72;3.92;;;;;;;;;;5085635;28;20027;-73
2023/04/03 03:53:20;;;;;;;9.13;4.28;;;;;;;;;;5085973;28;20035;-72
2023/04/03 03:55:46;;;;;;;4.55;3.60;;;;;;;;;;5085104;28;21119;-73
2023/04/03 03:58:12;;;;;;;7.38;3.00;;;;;;;;;;5084022;28;20024;-73
2023/04/03 04:00:38;;;;;;;5.65;3.17;;;;;;;;;;5084291;28;20035;-74
2023/04/03 04:03:04;;;;;;;4.38;3.42;;;;;;;;;;5066175;28;20056;-74
2023/04/03 04:05:30;;;;;;;5.35;3.28;;;;;;;;;;5084856;28;20043;-74
2023/04/03 04:07:56;;;;;;;4.90;3.58;;;;;;;;;;5086055;28;20145;-74
2023/04/03 04:10:23;;;;;;;6.38;3.75;;;;;;;;;;5086331;28;20107;-74
2023/04/03 04:12:51;;;;;;;5.65;3.55;;;;;;;;;;5087323;28;20154;-73
2023/04/03 04:15:17;;;;;;;5.20;3.80;;;;;;;;;;5086363;28;20028;-73
2023/04/03 04:17:44;;;;;;;5.03;3.67;;;;;;;;;;5086541;28;20139;-73
2023/04/03 04:20:14;;;;;;;4.53;2.85;;;;;;;;;;5094032;28;20170;-75
2023/04/03 04:22:40;;;;;;;;;;;;;;;;;;5093091;28;20500;-73
2023/04/03 04:25:06;;;;;;;5.25;3.80;;;;;;;;;;5088241;28;19924;-74
2023/04/03 04:27:32;;;;;;;4.43;3.38;;;;;;;;;;5085873;28;20028;-74
2023/04/03 04:29:58;;;;;;;4.53;2.90;;;;;;;;;;5102945;28;20040;-74
2023/04/03 04:32:24;;;;;;;6.22;3.00;;;;;;;;;;5106149;28;20031;-74
2023/04/03 04:34:50;;;;;;;4.28;3.35;;;;;;;;;;5106058;28;20031;-74
2023/04/03 04:37:16;;;;;;;4.15;3.03;;;;;;;;;;5106295;28;20372;-74
2023/04/03 04:39:42;;;;;;;4.45;3.30;;;;;;;;;;5106657;28;20035;-74
2023/04/03 04:42:12;;;;;;;3.78;3.15;;;;;;;;;;5111110;28;20022;-74
2023/04/03 04:44:38;;;;;;;4.65;3.47;;;;;;;;;;5109722;28;20114;-74
2023/04/03 04:47:04;;;;;;;5.28;3.47;;;;;;;;;;5109443;28;20027;-75
2023/04/03 04:49:30;;;;;;;4.90;3.17;;;;;;;;;;5090870;28;20430;-73
2023/04/03 04:51:56;;;;;;;5.10;3.10;;;;;;;;;;5110187;28;20026;-74
2023/04/03 04:54:22;;;;;;;3.67;3.15;;;;;;;;;;5109315;28;20293;-74
2023/04/03 04:56:49;;;;;;;3.80;2.80;;;;;;;;;;5091639;28;20047;-74
2023/04/03 04:59:15;;;;;;;5.60;3.55;;;;;;;;;;5112980;28;20102;-74
2023/04/03 05:01:41;;;;;;;4.85;2.97;;;;;;;;;;5091300;28;20032;-74
2023/04/03 05:04:10;;;;;;;4.72;3.15;;;;;;;;;;5091480;28;20042;-74
2023/04/03 05:06:36;;;;;;;7.57;3.30;;;;;;;;;;5095206;28;20033;-75
2023/04/03 05:09:02;;;;;;;3.08;2.38;;;;;;;;;;5090912;28;20329;-74
2023/04/03 05:11:28;;;;;;;3.72;3.35;;;;;;;;;;5088706;28;20113;-74
2023/04/03 05:13:54;;;;;;;4.85;3.35;;;;;;;;;;5088813;28;20085;-74
2023/04/03 05:16:20;;;;;;;5.95;3.35;;;;;;;;;;5070158;28;20051;-74
2023/04/03 05:18:46;;;;;;;6.53;3.28;;;;;;;;;;5070437;28;20027;-73
2023/04/03 05:21:12;;;;;;;5.60;3.53;;;;;;;;;;5088673;28;20038;-74
2023/04/03 05:23:38;;;;;;;6.10;3.60;;;;;;;;;;5088943;28;20032;-74
2023/04/03 05:26:04;;;;;;;4.35;3.40;;;;;;;;;;5088862;28;20084;-74
2023/04/03 05:28:30;;;;;;;7.53;3.72;;;;;;;;;;5074892;28;20020;-73
2023/04/03 05:30:58;;;;;;;5.75;3.53;;;;;;;;;;5090545;28;20139;-73
2023/04/03 05:33:24;;;;;;;6.05;3.30;;;;;;;;;;5109200;28;20087;-74
2023/04/03 05:35:50;;;;;;;5.47;3.95;;;;;;;;;;5109473;28;20027;-74
2023/04/03 05:38:16;;;;;;;4.22;3.50;;;;;;;;;;5110216;28;20418;-73
2023/04/03 05:40:42;;;;;;;6.75;3.22;;;;;;;;;;5108865;28;20540;-73
2023/04/03 05:43:08;;;;;;;5.60;4.32;;;;;;;;;;5108053;28;20027;-73
2023/04/03 05:45:34;;;;;;;4.90;3.90;;;;;;;;;;5111064;28;20092;-73
2023/04/03 05:48:00;;;;;;;8.45;4.00;;;;;;;;;;5110039;28;20015;-73
2023/04/03 05:50:26;;;;;;;6.03;4.85;;;;;;;;;;5108533;28;20524;-74
2023/04/03 05:52:53;;;;;;;8.48;4.38;;;;;;;;;;5107661;28;20053;-74
2023/04/03 05:55:19;;;;;;;4.97;4.15;;;;;;;;;;5108663;28;20357;-74
2023/04/03 05:57:45;;;;;;;5.20;3.92;;;;;;;;;;5090343;28;20460;-74
2023/04/03 06:00:15;;;;;;;6.15;4.13;;;;;;;;;;5109739;28;20049;-73
2023/04/03 06:02:41;;;;;;;;;;;;;;;;;;5108889;28;20396;-74
2023/04/03 06:05:08;;;;;;;7.15;4.05;;;;;;;;;;5089701;28;19915;-75
2023/04/03 06:07:34;;;;;;;9.45;4.20;;;;;;;;;;5090486;28;20115;-74
2023/04/03 06:10:01;;;;;;;10.98;4.55;;;;;;;;;;5095805;28;20114;-73
2023/04/03 06:12:29;;;;;;;6.65;4.10;;;;;;;;;;5069406;28;20024;-74
2023/04/03 06:14:55;;;;;;;7.63;3.83;;;;;;;;;;5088587;28;20021;-74
2023/04/03 06:17:22;;;;;;;11.43;5.28;;;;;;;;;;5087851;28;20541;-74
2023/04/03 06:19:48;;;;;;;7.55;4.20;;;;;;;;;;5069688;28;20024;-74
2023/04/03 06:22:14;;;;;;;6.65;4.10;;;;;;;;;;5071489;28;20473;-75
2023/04/03 06:24:41;;;;;;;12.73;4.68;;;;;;;;;;5090842;28;20570;-75
2023/04/03 06:27:07;;;;;;;7.45;4.80;;;;;;;;;;5091560;28;20020;-75
2023/04/03 06:29:33;;;;;;;5.53;4.35;;;;;;;;;;5086746;28;20441;-75
2023/04/03 06:32:00;;;;;;;5.53;4.20;;;;;;;;;;5091884;28;20027;-76
2023/04/03 06:34:26;;;;;;;8.88;4.75;;;;;;;;;;5109690;28;20024;-75
2023/04/03 06:36:52;;;;;;;5.80;4.10;;;;;;;;;;5110830;28;20134;-75
2023/04/03 06:39:29;;;;;;;6.88;4.95;;;;;;;;;;5092681;28;20035;-75
2023/04/03 06:41:55;;;;;;;8.30;4.65;;;;;;;;;;5109108;28;20019;-75
2023/04/03 06:44:21;;;;;;;6.38;4.28;;;;;;;;;;5089071;28;20154;-74
2023/04/03 06:46:48;;;;;;;6.60;4.65;;;;;;;;;;5108101;28;20027;-75
2023/04/03 06:49:14;;;;;;;9.82;5.60;;;;;;;;;;5089342;28;20110;-75
2023/04/03 06:51:40;;;;;;;7.43;5.18;;;;;;;;;;5107334;28;20027;-75
2023/04/03 06:54:10;;;;;;;6.88;4.32;;;;;;;;;;5089058;28;20255;-74
2023/04/03 06:56:36;;;;;;;8.27;4.30;;;;;;;;;;5109523;28;20016;-74
2023/04/03 06:59:02;;;;;;;10.68;5.18;;;;;;;;;;5089923;28;20035;-75
2023/04/03 07:01:29;;;;;;;9.10;4.43;;;;;;;;;;5090601;28;20028;-74
2023/04/03 07:03:56;;;;;;;7.07;4.45;;;;;;;;;;5092080;28;20035;-75
2023/04/03 07:06:22;;;;;;;7.22;4.68;;;;;;;;;;5110847;28;20067;-75
2023/04/03 07:08:48;;;;;;;8.45;4.88;;;;;;;;;;5109965;28;20376;-75
2023/04/03 07:11:15;;;;;;;6.55;4.30;;;;;;;;;;5110102;28;20031;-75
2023/04/03 07:13:41;;;;;;;7.70;4.65;;;;;;;;;;5109602;28;20498;-75
2023/04/03 07:16:08;;;;;;;8.50;4.82;;;;;;;;;;5110237;28;20016;-75
2023/04/03 07:18:34;;;;;;;8.10;4.18;;;;;;;;;;5110434;28;20043;-75
2023/04/03 07:21:01;;;;;;;5.65;4.38;;;;;;;;;;5092284;28;20460;-76
2023/04/03 07:23:27;;;;;;;7.85;4.15;;;;;;;;;;5112152;28;20039;-75
2023/04/03 07:25:53;;;;;;;6.53;4.68;;;;;;;;;;5091926;28;20039;-75
2023/04/03 07:28:22;;;;;;;6.70;4.35;;;;;;;;;;5089800;28;20408;-75
2023/04/03 07:30:52;;;;;;;7.33;4.97;;;;;;;;;;5068763;28;20351;-75
2023/04/03 07:33:19;;;;;;;8.32;6.25;;;;;;;;;;5088213;28;20022;-75
2023/04/03 07:35:45;;;;;;;11.15;7.03;;;;;;;;;;5086260;28;20466;-74
2023/04/03 07:38:11;;;;;;;6.13;4.05;;;;;;;;;;5087209;28;20016;-75
2023/04/03 07:40:37;;;;;;;5.50;4.20;;;;;;;;;;5068490;28;20543;-74
2023/04/03 07:43:03;;;;;;;10.85;5.80;;;;;;;;;;5070539;28;20024;-74
2023/04/03 07:45:29;;;;;;;7.95;4.75;;;;;;;;;;5086472;28;20040;-75
2023/04/03 07:47:55;;;;;;;8.93;4.75;;;;;;;;;;5086715;28;20052;-75
2023/04/03 07:50:21;;;;;;;7.53;4.72;;;;;;;;;;5068055;28;20105;-74
2023/04/03 07:52:48;;;;;;;7.50;4.70;;;;;;;;;;5087904;28;20104;-75
2023/04/03 07:55:15;;;;;;;8.43;4.05;;;;;;;;;;5089071;28;20047;-75
2023/04/03 07:57:42;;;;;;;8.50;4.93;;;;;;;;;;5086126;28;20484;-74
2023/04/03 08:00:08;;;;;;;7.28;4.97;;;;;;;;;;5086777;28;20030;-74
2023/04/03 08:02:36;;;;;;;6.15;4.80;;;;;;;;;;5086734;28;20024;-75
2023/04/03 08:05:02;;;;;;;13.25;6.85;;;;;;;;;;5085837;28;20028;-73
2023/04/03 08:07:28;;;;;;;5.05;4.40;;;;;;;;;;5087618;28;20479;-74
2023/04/03 08:09:55;;;;;;;14.45;5.50;;;;;;;;;;5086551;28;20396;-75
2023/04/03 08:12:21;;;;;;;7.55;4.63;;;;;;;;;;5086152;28;20460;-74
2023/04/03 08:14:46;;;;;;;7.28;4.25;;;;;;;;;;5086182;28;20039;-75
2023/04/03 08:17:12;;;;;;;8.80;6.32;;;;;;;;;;5090058;28;20052;-74
2023/04/03 08:19:39;;;;;;;8.57;5.90;;;;;;;;;;5091133;28;20449;-75
2023/04/03 08:22:06;;;;;;;7.10;5.03;;;;;;;;;;5090915;28;20024;-75
2023/04/03 08:24:32;;;;;;;7.00;5.03;;;;;;;;;;5090328;28;20457;-75
2023/04/03 08:26:58;;;;;;;10.88;5.75;;;;;;;;;;5089712;28;20583;-75
2023/04/03 08:29:25;;;;;;;11.98;5.95;;;;;;;;;;5083343;28;20488;-75
2023/04/03 08:31:51;;;;;;;9.40;5.53;;;;;;;;;;5091571;28;20051;-74
2023/04/03 08:34:17;;;;;;;6.25;4.97;;;;;;;;;;5109594;28;20127;-74
2023/04/03 08:36:44;;;;;;;7.18;4.53;;;;;;;;;;5109671;28;20064;-75
2023/04/03 08:39:10;;;;;;;8.35;4.50;;;;;;;;;;5110129;28;20194;-74
2023/04/03 08:41:42;;;;;;;6.63;4.05;;;;;;;;;;5109184;28;20022;-74
2023/04/03 08:44:16;;;;;;;9.05;4.47;;;;;;;;;;5090903;28;20035;-75
2023/04/03 08:47:02;;;;;;;5.93;4.45;;;;;;;;;;5109886;28;20077;-75
2023/04/03 08:49:57;;;;;;;8.07;4.15;;;;;;;;;;5110340;28;20031;-75
2023/04/03 08:52:38;;;;;;;5.20;3.90;;;;;;;;;;5087392;28;20378;-74
2023/04/03 08:55:06;;;;;;;7.47;5.35;;;;;;;;;;5109166;28;20537;-74
2023/04/03 08:57:44;;;;;;;7.10;4.18;;;;;;;;;;5109416;28;20036;-74
2023/04/03 09:00:24;;;;;;;10.52;4.68;;;;;;;;;;5091035;28;20085;-73
2023/04/03 09:02:51;;;;;;;4.05;3.42;;;;;;;;;;5109153;28;20031;-74
2023/04/03 09:05:20;;;;;;;3.85;3.55;;;;;;;;;;5109251;28;20043;-75
2023/04/03 09:07:48;;;;;;;5.10;4.60;;;;;;;;;;5109163;28;20028;-74
2023/04/03 09:10:15;;;;;;;5.85;4.10;;;;;;;;;;5108863;28;20258;-74
2023/04/03 09:12:53;;;;;;;8.50;5.43;;;;;;;;;;5090783;28;20030;-73
2023/04/03 09:15:21;;;;;;;4.15;3.58;;;;;;;;;;5090052;28;20169;-73
2023/04/03 09:18:13;;;;;;;6.32;3.75;;;;;;;;;;5090455;28;20046;-73
2023/04/03 09:20:41;;;;;;;6.47;3.53;;;;;;;;;;5109419;28;20024;-73
2023/04/03 09:23:15;;;;;;;9.90;5.00;;;;;;;;;;5109143;28;20080;-74
2023/04/03 09:25:41;;;;;;;4.00;3.35;;;;;;;;;;5108556;28;20067;-73
2023/04/03 09:28:09;;;;;;;4.70;3.78;;;;;;;;;;5106224;28;20024;-73
2023/04/03 09:30:36;;;;;;;6.07;3.72;;;;;;;;;;5070429;28;20123;-72
2023/04/03 09:33:02;;;;;;;4.70;3.38;;;;;;;;;;5088303;28;20030;-74
2023/04/03 09:35:31;;;;;;;7.82;4.00;;;;;;;;;;5070000;28;20031;-74
2023/04/03 09:38:09;;;;;;;9.02;5.70;;;;;;;;;;5070514;28;20031;-73
2023/04/03 09:40:38;;;;;;;10.60;5.38;;;;;;;;;;5088691;28;20028;-74
2023/04/03 09:43:16;;;;;;;9.82;4.47;;;;;;;;;;5088269;28;20409;-74
2023/04/03 09:45:42;;;;;;;8.70;5.30;;;;;;;;;;5087998;28;20044;-74
2023/04/03 09:48:08;;;;;;;4.10;3.47;;;;;;;;;;5089880;28;20031;-74
2023/04/03 09:50:35;;;;;;;4.38;3.70;;;;;;;;;;5088069;28;20044;-73
2023/04/03 09:53:06;;;;;;;4.57;3.53;;;;;;;;;;5088355;28;20032;-73
2023/04/03 09:55:32;;;;;;;5.40;4.50;;;;;;;;;;5088013;28;20391;-74
2023/04/03 09:58:03;;;;;;;4.93;3.78;;;;;;;;;;5087874;28;20039;-74
2023/04/03 10:00:38;;;;;;;3.72;3.33;;;;;;;;;;5087660;28;20055;-73
2023/04/03 10:03:05;;;;;;;4.40;3.22;;;;;;;;;;5087781;28;20028;-74
2023/04/03 10:05:35;;;;;;;4.43;3.67;;;;;;;;;;5087834;28;20651;-73
2023/04/03 10:08:14;;;;;;;5.63;3.40;;;;;;;;;;5069233;28;20028;-74
2023/04/03 10:10:45;;;;;;;6.82;4.53;;;;;;;;;;5087850;28;20472;-74
2023/04/03 10:13:12;;;;;;;4.60;4.07;;;;;;;;;;5070159;28;20032;-73
2023/04/03 10:15:53;;;;;;;6.63;3.97;;;;;;;;;;5087070;28;20280;-74
2023/04/03 10:18:38;;;;;;;3.72;3.00;;;;;;;;;;5068937;28;20054;-75
2023/04/03 10:21:10;;;;;;;4.53;3.30;;;;;;;;;;5087397;28;20111;-74
2023/04/03 10:23:36;;;;;;;4.22;3.22;;;;;;;;;;5088133;28;20520;-74
2023/04/03 10:26:10;;;;;;;5.00;3.10;;;;;;;;;;5087093;28;20044;-74
2023/04/03 10:28:36;;;;;;;5.00;2.90;;;;;;;;;;5092910;28;20020;-74
2023/04/03 10:31:11;;;;;;;4.55;3.08;;;;;;;;;;5088895;28;20479;-74
2023/04/03 10:33:43;;;;;;;3.20;2.90;;;;;;;;;;5089201;28;20031;-75
2023/04/03 10:36:17;;;;;;;5.47;3.30;;;;;;;;;;5088754;28;20483;-74
2023/04/03 10:39:03;;;;;;;3.22;2.85;;;;;;;;;;5089482;28;20027;-74
2023/04/03 10:41:32;;;;;;;3.65;2.72;;;;;;;;;;5088846;28;20440;-74
2023/04/03 10:44:08;;;;;;;7.40;3.80;;;;;;;;;;5106685;28;20031;-74
2023/04/03 10:47:03;;;;;;;3.85;3.08;;;;;;;;;;5107143;28;20084;-75
2023/04/03 10:49:55;;;;;;;2.58;2.38;;;;;;;;;;5085271;28;20154;-76
2023/04/03 10:52:40;;;;;;;2.95;2.50;;;;;;;;;;5089261;28;20732;-76
2023/04/03 10:55:25;;;;;;;2.90;2.63;;;;;;;;;;5106949;28;20122;-75
2023/04/03 10:57:51;;;;;;;2.60;2.25;;;;;;;;;;5107028;28;20027;-75
2023/04/03 11:00:22;;;;;;;2.88;2.25;;;;;;;;;;5108347;28;20027;-74
2023/04/03 11:03:00;;;;;;;4.10;2.47;;;;;;;;;;5107260;28;20114;-75
2023/04/03 11:05:32;;;;;;;4.50;2.60;;;;;;;;;;5107086;28;20139;-74
2023/04/03 11:08:02;;;;;;;2.55;1.90;;;;;;;;;;5089320;28;20107;-74
2023/04/03 11:10:36;;;;;;;1.60;1.50;;;;;;;;;;5089599;28;20035;-74
2023/04/03 11:13:07;;;;;;;3.35;2.10;;;;;;;;;;5108434;28;20023;-76
2023/04/03 11:15:33;;;;;;;3.67;2.20;;;;;;;;;;5107639;28;20092;-76
2023/04/03 11:18:19;;;;;;;4.50;2.42;;;;;;;;;;5106872;28;20081;-75
2023/04/03 11:20:51;;;;;;;2.88;1.80;;;;;;;;;;5106562;28;20613;-75
2023/04/03 11:23:27;;;;;;;2.35;1.92;;;;;;;;;;5105250;28;20023;-75
2023/04/03 11:25:54;;;;;;;3.70;2.95;;;;;;;;;;5105564;28;20202;-73
2023/04/03 11:28:20;;;;;;;2.40;2.20;;;;;;;;;;5102616;28;20076;-73
2023/04/03 11:31:06;;;;;;;3.30;2.40;;;;;;;;;;5085383;28;20047;-74
2023/04/03 11:33:52;;;;;;;5.25;3.50;;;;;;;;;;5067161;28;20321;-74
2023/04/03 11:36:26;;;;;;;3.22;2.40;;;;;;;;;;5085997;28;20654;-74
2023/04/03 11:38:54;;;;;;;5.00;2.95;;;;;;;;;;5086186;28;20127;-74
2023/04/03 11:41:26;;;;;;;3.97;2.80;;;;;;;;;;5085289;28;20153;-73
2023/04/03 11:43:58;;;;;;;8.25;2.90;;;;;;;;;;5087885;28;20369;-74
2023/04/03 11:46:44;;;;;;;3.13;2.83;;;;;;;;;;5088072;28;20032;-76
2023/04/03 11:49:30;;;;;;;6.07;3.10;;;;;;;;;;5067998;28;20024;-75
2023/04/03 11:51:56;;;;;;;3.28;2.17;;;;;;;;;;5086551;28;20461;-73
2023/04/03 11:54:41;;;;;;;4.03;1.90;;;;;;;;;;5085416;28;20035;-74
2023/04/03 11:57:25;;;;;;;2.45;2.25;;;;;;;;;;5085657;28;20442;-75
2023/04/03 11:59:51;;;;;;;2.78;2.58;;;;;;;;;;5085496;28;20032;-72
2023/04/03 12:02:38;;;;;;;5.07;2.60;;;;;;;;;;5084832;28;20020;-75
2023/04/03 12:05:22;;;;;;;2.40;2.17;;;;;;;;;;5085512;28;20036;-75
2023/04/03 12:08:07;;;;;;;3.50;2.47;;;;;;;;;;5086582;28;20030;-73
2023/04/03 12:10:33;;;;;;;3.40;2.75;;;;;;;;;;5086900;28;20364;-74
2023/04/03 12:13:02;;;;;;;3.65;3.10;;;;;;;;;;5086166;28;20153;-74
2023/04/03 12:15:37;;;;;;;6.30;3.03;;;;;;;;;;5071674;28;20119;-76
2023/04/03 12:18:22;;;;;;;4.15;2.17;;;;;;;;;;5087638;28;20055;-74
2023/04/03 12:20:54;;;;;;;2.90;1.95;;;;;;;;;;5088362;28;20039;-75
2023/04/03 12:23:38;;;;;;;2.75;2.30;;;;;;;;;;5085606;28;20020;-75
2023/04/03 12:26:04;;;;;;;2.80;2.15;;;;;;;;;;5089273;28;20142;-74
2023/04/03 12:28:36;;;;;;;2.83;1.80;;;;;;;;;;5090693;28;20291;-73
2023/04/03 12:31:02;;;;;;;3.33;1.58;;;;;;;;;;5109545;28;20020;-75
2023/04/03 12:33:36;;;;;;;1.73;1.63;;;;;;;;;;5107174;28;20460;-74
2023/04/03 12:36:11;;;;;;;2.45;1.70;;;;;;;;;;5088211;28;20023;-75
2023/04/03 12:38:37;;;;;;;1.23;1.13;;;;;;;;;;5087893;28;20379;-75
2023/04/03 12:41:03;;;;;;;1.05;1.02;;;;;;;;;;5090544;28;20027;-74
2023/04/03 12:43:42;;;;;;;1.02;1.02;;;;;;;;;;5091303;28;20023;-75
2023/04/03 12:46:08;;;;;;;;;;;;;;;;;;5091445;28;20047;-74
2023/04/03 12:48:38;;;;;;;1.00;1.00;;;;;;;;;;5111016;28;19903;-75
2023/04/03 12:51:07;;;;;;;1.40;1.17;;;;;;;;;;5109956;28;20024;-75
2023/04/03 12:53:34;;;;;;;1.35;1.10;;;;;;;;;;5109968;28;20487;-75
2023/04/03 12:56:20;;;;;;;2.13;1.30;;;;;;;;;;5091915;28;20067;-75
2023/04/03 12:58:46;;;;;;;1.20;1.10;;;;;;;;;;5108684;28;20282;-75
2023/04/03 13:01:14;;;;;;;2.40;1.48;;;;;;;;;;5090115;28;20059;-75
2023/04/03 13:03:41;;;;;;;1.75;1.38;;;;;;;;;;5109144;28;20435;-75
2023/04/03 13:06:07;;;;;;;1.60;1.30;;;;;;;;;;5111256;28;20039;-73
2023/04/03 13:08:33;;;;;;;1.30;1.20;;;;;;;;;;5095658;28;20395;-75
2023/04/03 13:11:18;;;;;;;2.33;1.02;;;;;;;;;;5090775;28;20031;-74
2023/04/03 13:14:05;;;;;;;1.40;1.30;;;;;;;;;;5091945;28;20028;-75
2023/04/03 13:16:31;;;;;;;2.17;1.30;;;;;;;;;;5108789;28;20528;-75
2023/04/03 13:18:58;;;;;;;1.25;1.23;;;;;;;;;;5109203;28;20073;-74
2023/04/03 13:21:28;;;;;;;1.67;1.42;;;;;;;;;;5108679;28;20097;-75
2023/04/03 13:23:58;;;;;;;1.63;1.52;;;;;;;;;;5091547;28;20035;-74
2023/04/03 13:26:27;;;;;;;1.60;1.38;;;;;;;;;;5112850;28;20038;-75
2023/04/03 13:28:54;;;;;;;1.98;1.10;;;;;;;;;;5086227;28;20031;-73
2023/04/03 13:31:23;;;;;;;1.92;1.30;;;;;;;;;;5088349;28;20405;-74
2023/04/03 13:34:11;;;;;;;1.63;1.52;;;;;;;;;;5087559;28;20545;-75
2023/04/03 13:36:40;;;;;;;1.75;1.20;;;;;;;;;;5091062;28;20191;-75
2023/04/03 13:39:15;;;;;;;1.48;1.08;;;;;;;;;;5090875;28;20020;-75
2023/04/03 13:41:46;;;;;;;1.60;1.48;;;;;;;;;;5091449;28;20097;-75
2023/04/03 13:44:24;;;;;;;3.67;1.25;;;;;;;;;;5072073;28;20498;-76
2023/04/03 13:46:51;;;;;;;1.40;1.30;;;;;;;;;;5073623;28;20050;-75
2023/04/03 13:49:22;;;;;;;1.42;1.33;;;;;;;;;;5089881;28;20075;-75
2023/04/03 13:51:48;;;;;;;1.00;1.00;;;;;;;;;;5073370;28;20247;-75
2023/04/03 13:54:23;;;;;;;2.55;1.50;;;;;;;;;;5069079;28;20476;-75
2023/04/03 13:56:56;;;;;;;1.83;1.30;;;;;;;;;;5071020;28;20059;-75
2023/04/03 13:59:25;;;;;;;2.20;1.30;;;;;;;;;;5073167;28;20039;-75
2023/04/03 14:01:54;;;;;;;2.28;2.10;;;;;;;;;;5090052;28;20028;-75
2023/04/03 14:04:21;;;;;;;3.30;2.00;;;;;;;;;;5090315;28;20277;-75
2023/04/03 14:06:47;;;;;;;1.83;1.65;;;;;;;;;;5088342;28;20024;-75
2023/04/03 14:09:14;;;;;;;1.75;1.65;;;;;;;;;;5091684;28;20294;-75
2023/04/03 14:11:41;;;;;;;2.30;2.10;;;;;;;;;;5071139;28;20027;-74
2023/04/03 14:14:13;;;;;;;1.20;1.10;;;;;;;;;;5086953;28;20428;-75
2023/04/03 14:16:40;;;;;;;1.60;1.50;;;;;;;;;;5089866;28;20108;-75
2023/04/03 14:19:07;;;;;;;2.33;2.10;;;;;;;;;;5087955;28;20431;-76
2023/04/03 14:21:33;;;;;;;1.40;1.30;;;;;;;;;;5069335;28;20123;-76
2023/04/03 14:23:59;;;;;;;5.03;3.22;;;;;;;;;;5088866;28;20036;-76
2023/04/03 14:26:27;;;;;;;3.22;1.50;;;;;;;;;;5086887;28;20029;-77
2023/04/03 14:28:55;;;;;;;1.35;1.25;;;;;;;;;;5090703;28;20553;-77
2023/04/03 14:31:22;;;;;;;1.17;1.08;;;;;;;;;;5087236;28;20031;-76
2023/04/03 14:33:48;;;;;;;1.35;1.25;;;;;;;;;;5086998;28;20024;-75
2023/04/03 14:36:16;;;;;;;1.55;1.10;;;;;;;;;;5087364;28;20055;-76
2023/04/03 14:38:44;;;;;;;3.72;2.22;;;;;;;;;;5069254;28;20047;-74
2023/04/03 14:41:12;;;;;;;1.40;1.30;;;;;;;;;;5087956;28;20320;-76
2023/04/03 14:43:38;;;;;;;0.85;0.82;;;;;;;;;;5071600;28;20354;-76
2023/04/03 14:46:05;;;;;;;2.08;1.98;;;;;;;;;;5088707;28;20790;-75
2023/04/03 14:48:31;;;;;;;1.60;1.42;;;;;;;;;;5087577;28;20586;-74
2023/04/03 14:50:57;;;;;;;1.77;1.30;;;;;;;;;;5087861;28;20038;-74
2023/04/03 14:53:25;;;;;;;1.45;1.35;;;;;;;;;;5086652;28;20026;-74